LFLN/SYT METAR and TAF weather

Enter ICAO airport designator
Station Type Date Time Source
LFLN METAR 2022/08/16 19:00 UTC NOAA

LFLN 161900Z AUTO 31008KT 260V350 9999 -RA ///CB 19/16 Q1010 TEMPO VRB15G30KT 2000 TSRA


Station Type Date Time Source
LFLN Decoded METAR 2022/08/16 19:00 UTC NOAA

Saint-Yan, France (LFLN) 46-25N 004-01E 244M
Aug 16, 2022 - 03:00 PM EDT / 2022.08.16 1900 UTC
Wind: from the NW (310 degrees) at 9 MPH (8 KT) (direction variable):0
Visibility: greater than 7 mile(s):0
Weather: light rain; Cumulonimbus clouds observed
Temperature: 66 F (19 C)
Dew Point: 60 F (16 C)
Relative Humidity: 82%
Pressure (altimeter): 29.83 in. Hg (1010 hPa)
ob: LFLN 161900Z AUTO 31008KT 260V350 9999 -RA ///CB 19/16 Q1010 TEMPO VRB15G30KT 2000 TSRA
cycle: 19

Station Type Date Time Source
LFLN TAF UTC NOAA

Error!

Example: see airport list